sensor_id;sensor_type;location;lat;lon;timestamp;temperature;humidity
8008;DHT22;4049;49.468;11.200;2024-01-07T00:00:30;3.70;99.90
8008;DHT22;4049;49.468;11.200;2024-01-07T00:02:57;3.70;99.90
8008;DHT22;4049;49.468;11.200;2024-01-07T00:05:24;3.70;99.90
8008;DHT22;4049;49.468;11.200;2024-01-07T00:07:52;3.70;99.90
8008;DHT22;4049;49.468;11.200;2024-01-07T00:10:19;3.70;99.90
8008;DHT22;4049;49.468;11.200;2024-01-07T00:12:46;3.60;99.90
8008;DHT22;4049;49.468;11.200;2024-01-07T00:15:13;3.70;99.90
8008;DHT22;4049;49.468;11.200;2024-01-07T00:17:40;3.70;99.90
8008;DHT22;4049;49.468;11.200;2024-01-07T00:20:08;3.60;99.90
8008;DHT22;4049;49.468;11.200;2024-01-07T00:22:36;3.70;99.90
8008;DHT22;4049;49.468;11.200;2024-01-07T00:25:04;3.60;99.90
8008;DHT22;4049;49.468;11.200;2024-01-07T00:27:31;3.70;99.90
8008;DHT22;4049;49.468;11.200;2024-01-07T00:29:58;3.70;99.90
8008;DHT22;4049;49.468;11.200;2024-01-07T00:32:25;3.70;99.90
8008;DHT22;4049;49.468;11.200;2024-01-07T00:34:52;3.70;99.90
8008;DHT22;4049;49.468;11.200;2024-01-07T00:37:19;3.60;99.90
8008;DHT22;4049;49.468;11.200;2024-01-07T00:39:46;3.60;99.90
8008;DHT22;4049;49.468;11.200;2024-01-07T00:42:14;3.60;99.90
8008;DHT22;4049;49.468;11.200;2024-01-07T00:44:41;3.60;99.90
8008;DHT22;4049;49.468;11.200;2024-01-07T00:47:08;3.60;99.90
8008;DHT22;4049;49.468;11.200;2024-01-07T00:49:34;3.60;99.90
8008;DHT22;4049;49.468;11.200;2024-01-07T00:52:01;3.50;99.90
8008;DHT22;4049;49.468;11.200;2024-01-07T00:54:28;3.50;99.90
8008;DHT22;4049;49.468;11.200;2024-01-07T00:56:55;3.50;99.90
8008;DHT22;4049;49.468;11.200;2024-01-07T00:59:23;3.50;99.90
8008;DHT22;4049;49.468;11.200;2024-01-07T01:01:50;3.50;99.90
8008;DHT22;4049;49.468;11.200;2024-01-07T01:04:17;3.50;99.90
8008;DHT22;4049;49.468;11.200;2024-01-07T01:06:45;3.50;99.90
8008;DHT22;4049;49.468;11.200;2024-01-07T01:09:12;3.50;99.90
8008;DHT22;4049;49.468;11.200;2024-01-07T01:11:39;3.50;99.90
8008;DHT22;4049;49.468;11.200;2024-01-07T01:14:05;3.50;99.90
8008;DHT22;4049;49.468;11.200;2024-01-07T01:16:34;3.50;99.90
8008;DHT22;4049;49.468;11.200;2024-01-07T01:19:00;3.50;99.90
8008;DHT22;4049;49.468;11.200;2024-01-07T01:21:27;3.50;99.90
8008;DHT22;4049;49.468;11.200;2024-01-07T01:23:54;3.50;99.90
8008;DHT22;4049;49.468;11.200;2024-01-07T01:26:21;3.50;99.90
8008;DHT22;4049;49.468;11.200;2024-01-07T01:28:50;3.50;99.90
8008;DHT22;4049;49.468;11.200;2024-01-07T01:31:17;3.40;99.90
8008;DHT22;4049;49.468;11.200;2024-01-07T01:33:45;3.50;99.90
8008;DHT22;4049;49.468;11.200;2024-01-07T01:36:12;3.50;99.90
8008;DHT22;4049;49.468;11.200;2024-01-07T01:38:39;3.50;99.90
8008;DHT22;4049;49.468;11.200;2024-01-07T01:41:06;3.40;99.90
8008;DHT22;4049;49.468;11.200;2024-01-07T01:43:32;3.50;99.90
8008;DHT22;4049;49.468;11.200;2024-01-07T01:45:59;3.40;99.90
8008;DHT22;4049;49.468;11.200;2024-01-07T01:48:26;3.40;99.90
8008;DHT22;4049;49.468;11.200;2024-01-07T01:50:55;3.50;99.90
8008;DHT22;4049;49.468;11.200;2024-01-07T01:53:24;3.50;99.90
8008;DHT22;4049;49.468;11.200;2024-01-07T01:55:52;3.40;99.90
8008;DHT22;4049;49.468;11.200;2024-01-07T01:58:19;3.40;99.90
8008;DHT22;4049;49.468;11.200;2024-01-07T02:00:47;3.40;99.90
8008;DHT22;4049;49.468;11.200;2024-01-07T02:03:14;3.40;99.90
8008;DHT22;4049;49.468;11.200;2024-01-07T02:05:41;3.40;99.90
8008;DHT22;4049;49.468;11.200;2024-01-07T02:08:10;3.40;99.90
8008;DHT22;4049;49.468;11.200;2024-01-07T02:10:37;3.40;99.90
8008;DHT22;4049;49.468;11.200;2024-01-07T02:13:04;3.40;99.90
8008;DHT22;4049;49.468;11.200;2024-01-07T02:15:31;3.40;99.90
8008;DHT22;4049;49.468;11.200;2024-01-07T02:17:59;3.40;99.90
8008;DHT22;4049;49.468;11.200;2024-01-07T02:20:25;3.50;99.90
8008;DHT22;4049;49.468;11.200;2024-01-07T02:22:52;3.50;99.90
8008;DHT22;4049;49.468;11.200;2024-01-07T02:25:21;3.40;99.90
8008;DHT22;4049;49.468;11.200;2024-01-07T02:27:47;3.50;99.90
8008;DHT22;4049;49.468;11.200;2024-01-07T02:30:14;3.50;99.90
8008;DHT22;4049;49.468;11.200;2024-01-07T02:32:41;3.50;99.90
8008;DHT22;4049;49.468;11.200;2024-01-07T02:35:08;3.50;99.90
8008;DHT22;4049;49.468;11.200;2024-01-07T02:37:35;3.40;99.90
8008;DHT22;4049;49.468;11.200;2024-01-07T02:40:02;3.40;99.90
8008;DHT22;4049;49.468;11.200;2024-01-07T02:42:30;3.40;99.90
8008;DHT22;4049;49.468;11.200;2024-01-07T02:44:57;3.40;99.90
8008;DHT22;4049;49.468;11.200;2024-01-07T02:47:23;3.40;99.90
8008;DHT22;4049;49.468;11.200;2024-01-07T02:49:51;3.40;99.90
8008;DHT22;4049;49.468;11.200;2024-01-07T02:52:18;3.40;99.90
8008;DHT22;4049;49.468;11.200;2024-01-07T02:54:44;3.40;99.90
8008;DHT22;4049;49.468;11.200;2024-01-07T02:57:11;3.40;99.90
8008;DHT22;4049;49.468;11.200;2024-01-07T02:59:39;3.40;99.90
8008;DHT22;4049;49.468;11.200;2024-01-07T03:02:06;3.40;99.90
8008;DHT22;4049;49.468;11.200;2024-01-07T03:04:33;3.30;99.90
8008;DHT22;4049;49.468;11.200;2024-01-07T03:07:00;3.30;99.90
8008;DHT22;4049;49.468;11.200;2024-01-07T03:09:27;3.30;99.90
8008;DHT22;4049;49.468;11.200;2024-01-07T03:11:54;3.30;99.90
8008;DHT22;4049;49.468;11.200;2024-01-07T03:14:21;3.30;99.90
8008;DHT22;4049;49.468;11.200;2024-01-07T03:16:50;3.30;99.90
8008;DHT22;4049;49.468;11.200;2024-01-07T03:19:17;3.30;99.90
8008;DHT22;4049;49.468;11.200;2024-01-07T03:21:43;3.30;99.90
8008;DHT22;4049;49.468;11.200;2024-01-07T03:24:10;3.30;99.90
8008;DHT22;4049;49.468;11.200;2024-01-07T03:26:37;3.30;99.90
8008;DHT22;4049;49.468;11.200;2024-01-07T03:29:04;3.30;99.90
8008;DHT22;4049;49.468;11.200;2024-01-07T03:31:31;3.30;99.90
8008;DHT22;4049;49.468;11.200;2024-01-07T03:33:59;3.30;99.90
8008;DHT22;4049;49.468;11.200;2024-01-07T03:36:26;3.30;99.90
8008;DHT22;4049;49.468;11.200;2024-01-07T03:38:53;3.20;99.90
8008;DHT22;4049;49.468;11.200;2024-01-07T03:41:20;3.20;99.90
8008;DHT22;4049;49.468;11.200;2024-01-07T03:43:48;3.20;99.90
8008;DHT22;4049;49.468;11.200;2024-01-07T03:46:16;3.20;99.90
8008;DHT22;4049;49.468;11.200;2024-01-07T03:48:43;3.20;99.90
8008;DHT22;4049;49.468;11.200;2024-01-07T03:51:12;3.20;99.90
8008;DHT22;4049;49.468;11.200;2024-01-07T03:53:39;3.30;99.90
8008;DHT22;4049;49.468;11.200;2024-01-07T03:56:06;3.30;99.90
8008;DHT22;4049;49.468;11.200;2024-01-07T03:58:33;3.20;99.90
8008;DHT22;4049;49.468;11.200;2024-01-07T04:01:00;3.20;99.90
8008;DHT22;4049;49.468;11.200;2024-01-07T04:03:27;3.20;99.90
8008;DHT22;4049;49.468;11.200;2024-01-07T04:05:54;3.20;99.90
8008;DHT22;4049;49.468;11.200;2024-01-07T04:08:22;3.20;99.90
8008;DHT22;4049;49.468;11.200;2024-01-07T04:10:49;3.20;99.90
8008;DHT22;4049;49.468;11.200;2024-01-07T04:13:16;3.20;99.90
8008;DHT22;4049;49.468;11.200;2024-01-07T04:15:43;3.20;99.90
8008;DHT22;4049;49.468;11.200;2024-01-07T04:18:09;3.20;99.90
8008;DHT22;4049;49.468;11.200;2024-01-07T04:20:37;3.20;99.90
8008;DHT22;4049;49.468;11.200;2024-01-07T04:23:04;3.20;99.90
8008;DHT22;4049;49.468;11.200;2024-01-07T04:25:32;3.20;99.90
8008;DHT22;4049;49.468;11.200;2024-01-07T04:27:59;3.20;99.90
8008;DHT22;4049;49.468;11.200;2024-01-07T04:30:26;3.10;99.90
8008;DHT22;4049;49.468;11.200;2024-01-07T04:32:53;3.20;99.90
8008;DHT22;4049;49.468;11.200;2024-01-07T04:35:19;3.10;99.90
8008;DHT22;4049;49.468;11.200;2024-01-07T04:37:46;3.10;99.90
8008;DHT22;4049;49.468;11.200;2024-01-07T04:40:14;3.10;99.90
8008;DHT22;4049;49.468;11.200;2024-01-07T04:42:42;3.10;99.90
8008;DHT22;4049;49.468;11.200;2024-01-07T04:45:09;3.10;99.90
8008;DHT22;4049;49.468;11.200;2024-01-07T04:47:35;3.00;99.90
8008;DHT22;4049;49.468;11.200;2024-01-07T04:50:03;3.10;99.90
8008;DHT22;4049;49.468;11.200;2024-01-07T04:52:30;3.10;99.90
8008;DHT22;4049;49.468;11.200;2024-01-07T04:54:57;3.10;99.90
8008;DHT22;4049;49.468;11.200;2024-01-07T04:57:24;3.00;99.90
8008;DHT22;4049;49.468;11.200;2024-01-07T04:59:52;3.00;99.90
8008;DHT22;4049;49.468;11.200;2024-01-07T05:02:19;3.10;99.90
8008;DHT22;4049;49.468;11.200;2024-01-07T05:04:46;3.00;99.90
8008;DHT22;4049;49.468;11.200;2024-01-07T05:07:13;3.00;99.90
8008;DHT22;4049;49.468;11.200;2024-01-07T05:09:40;3.00;99.90
8008;DHT22;4049;49.468;11.200;2024-01-07T05:12:07;3.00;99.90
8008;DHT22;4049;49.468;11.200;2024-01-07T05:14:33;3.00;99.90
8008;DHT22;4049;49.468;11.200;2024-01-07T05:17:02;2.90;99.90
8008;DHT22;4049;49.468;11.200;2024-01-07T05:19:29;2.90;99.90
8008;DHT22;4049;49.468;11.200;2024-01-07T05:21:56;2.90;99.90
8008;DHT22;4049;49.468;11.200;2024-01-07T05:24:23;2.90;99.90
8008;DHT22;4049;49.468;11.200;2024-01-07T05:26:50;2.90;99.90
8008;DHT22;4049;49.468;11.200;2024-01-07T05:29:17;2.80;99.90
8008;DHT22;4049;49.468;11.200;2024-01-07T05:31:44;2.80;99.90
8008;DHT22;4049;49.468;11.200;2024-01-07T05:34:12;2.80;99.90
8008;DHT22;4049;49.468;11.200;2024-01-07T05:36:39;2.80;99.90
8008;DHT22;4049;49.468;11.200;2024-01-07T05:39:05;2.80;99.90
8008;DHT22;4049;49.468;11.200;2024-01-07T05:41:33;2.70;99.90
8008;DHT22;4049;49.468;11.200;2024-01-07T05:43:59;2.80;99.90
8008;DHT22;4049;49.468;11.200;2024-01-07T05:46:26;2.80;99.90
8008;DHT22;4049;49.468;11.200;2024-01-07T05:48:53;2.70;99.90
8008;DHT22;4049;49.468;11.200;2024-01-07T05:51:21;2.70;99.90
8008;DHT22;4049;49.468;11.200;2024-01-07T05:53:48;2.70;99.90
8008;DHT22;4049;49.468;11.200;2024-01-07T05:56:15;2.70;99.90
8008;DHT22;4049;49.468;11.200;2024-01-07T05:58:42;2.70;99.90
8008;DHT22;4049;49.468;11.200;2024-01-07T06:01:08;2.70;99.90
8008;DHT22;4049;49.468;11.200;2024-01-07T06:03:35;2.70;99.90
8008;DHT22;4049;49.468;11.200;2024-01-07T06:06:02;2.70;99.90
8008;DHT22;4049;49.468;11.200;2024-01-07T06:08:30;2.70;99.90
8008;DHT22;4049;49.468;11.200;2024-01-07T06:10:58;2.60;99.90
8008;DHT22;4049;49.468;11.200;2024-01-07T06:13:24;2.60;99.90
8008;DHT22;4049;49.468;11.200;2024-01-07T06:15:52;2.60;99.90
8008;DHT22;4049;49.468;11.200;2024-01-07T06:18:19;2.60;99.90
8008;DHT22;4049;49.468;11.200;2024-01-07T06:20:45;2.70;99.90
8008;DHT22;4049;49.468;11.200;2024-01-07T06:23:12;2.50;99.90
8008;DHT22;4049;49.468;11.200;2024-01-07T06:25:40;2.50;99.90
8008;DHT22;4049;49.468;11.200;2024-01-07T06:28:09;2.50;99.90
8008;DHT22;4049;49.468;11.200;2024-01-07T06:30:36;2.50;99.90
8008;DHT22;4049;49.468;11.200;2024-01-07T06:33:04;2.50;99.90
8008;DHT22;4049;49.468;11.200;2024-01-07T06:35:31;2.50;99.90
8008;DHT22;4049;49.468;11.200;2024-01-07T06:37:58;2.50;99.90
8008;DHT22;4049;49.468;11.200;2024-01-07T06:40:25;2.50;99.90
8008;DHT22;4049;49.468;11.200;2024-01-07T06:42:53;2.50;99.90
8008;DHT22;4049;49.468;11.200;2024-01-07T06:45:20;2.50;99.90
8008;DHT22;4049;49.468;11.200;2024-01-07T06:47:47;2.50;99.90
8008;DHT22;4049;49.468;11.200;2024-01-07T06:50:14;2.50;99.90
8008;DHT22;4049;49.468;11.200;2024-01-07T06:52:41;2.50;99.90
8008;DHT22;4049;49.468;11.200;2024-01-07T06:55:08;2.50;99.90
8008;DHT22;4049;49.468;11.200;2024-01-07T06:57:35;2.40;99.90
8008;DHT22;4049;49.468;11.200;2024-01-07T07:00:04;2.40;99.90
8008;DHT22;4049;49.468;11.200;2024-01-07T07:02:31;2.40;99.90
8008;DHT22;4049;49.468;11.200;2024-01-07T07:04:58;2.40;99.90
8008;DHT22;4049;49.468;11.200;2024-01-07T07:07:25;2.40;99.90
8008;DHT22;4049;49.468;11.200;2024-01-07T07:09:52;2.40;99.90
8008;DHT22;4049;49.468;11.200;2024-01-07T07:12:19;2.40;99.90
8008;DHT22;4049;49.468;11.200;2024-01-07T07:14:46;2.40;99.90
8008;DHT22;4049;49.468;11.200;2024-01-07T07:17:15;2.40;99.90
8008;DHT22;4049;49.468;11.200;2024-01-07T07:19:42;2.40;99.90
8008;DHT22;4049;49.468;11.200;2024-01-07T07:22:08;2.40;99.90
8008;DHT22;4049;49.468;11.200;2024-01-07T07:24:40;2.30;99.90
8008;DHT22;4049;49.468;11.200;2024-01-07T07:27:07;2.30;99.90
8008;DHT22;4049;49.468;11.200;2024-01-07T07:29:34;2.30;99.90
8008;DHT22;4049;49.468;11.200;2024-01-07T07:32:00;2.30;99.90
8008;DHT22;4049;49.468;11.200;2024-01-07T07:34:29;2.30;99.90
8008;DHT22;4049;49.468;11.200;2024-01-07T07:36:55;2.30;99.90
8008;DHT22;4049;49.468;11.200;2024-01-07T07:39:22;2.30;99.90
8008;DHT22;4049;49.468;11.200;2024-01-07T07:41:49;2.20;99.90
8008;DHT22;4049;49.468;11.200;2024-01-07T07:44:16;2.20;99.90
8008;DHT22;4049;49.468;11.200;2024-01-07T07:46:43;2.20;99.90
8008;DHT22;4049;49.468;11.200;2024-01-07T07:49:10;2.20;99.90
8008;DHT22;4049;49.468;11.200;2024-01-07T07:51:39;2.20;99.90
8008;DHT22;4049;49.468;11.200;2024-01-07T07:54:06;2.20;99.90
8008;DHT22;4049;49.468;11.200;2024-01-07T07:56:33;2.20;99.90
8008;DHT22;4049;49.468;11.200;2024-01-07T07:59:01;2.20;99.90
8008;DHT22;4049;49.468;11.200;2024-01-07T08:01:28;2.20;99.90
8008;DHT22;4049;49.468;11.200;2024-01-07T08:03:55;2.20;99.90
8008;DHT22;4049;49.468;11.200;2024-01-07T08:06:22;2.10;99.90
8008;DHT22;4049;49.468;11.200;2024-01-07T08:08:50;2.10;99.90
8008;DHT22;4049;49.468;11.200;2024-01-07T08:11:17;2.10;99.90
8008;DHT22;4049;49.468;11.200;2024-01-07T08:13:44;2.10;99.90
8008;DHT22;4049;49.468;11.200;2024-01-07T08:16:10;2.10;99.90
8008;DHT22;4049;49.468;11.200;2024-01-07T08:18:37;2.10;99.90
8008;DHT22;4049;49.468;11.200;2024-01-07T08:21:04;2.10;99.90
8008;DHT22;4049;49.468;11.200;2024-01-07T08:23:31;2.00;99.90
8008;DHT22;4049;49.468;11.200;2024-01-07T08:25:59;2.00;99.90
8008;DHT22;4049;49.468;11.200;2024-01-07T08:28:26;2.00;99.90
8008;DHT22;4049;49.468;11.200;2024-01-07T08:30:53;2.00;99.90
8008;DHT22;4049;49.468;11.200;2024-01-07T08:33:21;2.00;99.90
8008;DHT22;4049;49.468;11.200;2024-01-07T08:35:48;2.00;99.90
8008;DHT22;4049;49.468;11.200;2024-01-07T08:38:15;2.00;99.90
8008;DHT22;4049;49.468;11.200;2024-01-07T08:40:42;2.00;99.90
8008;DHT22;4049;49.468;11.200;2024-01-07T08:43:10;2.00;99.90
8008;DHT22;4049;49.468;11.200;2024-01-07T08:45:37;2.00;99.90
8008;DHT22;4049;49.468;11.200;2024-01-07T08:48:04;1.90;99.90
8008;DHT22;4049;49.468;11.200;2024-01-07T08:50:31;2.00;99.90
8008;DHT22;4049;49.468;11.200;2024-01-07T08:52:58;2.00;99.90
8008;DHT22;4049;49.468;11.200;2024-01-07T08:55:25;2.00;99.90
8008;DHT22;4049;49.468;11.200;2024-01-07T08:57:52;1.90;99.90
8008;DHT22;4049;49.468;11.200;2024-01-07T09:00:24;1.90;99.90
8008;DHT22;4049;49.468;11.200;2024-01-07T09:02:52;1.90;99.90
8008;DHT22;4049;49.468;11.200;2024-01-07T09:05:19;1.90;99.90
8008;DHT22;4049;49.468;11.200;2024-01-07T09:07:46;1.80;99.90
8008;DHT22;4049;49.468;11.200;2024-01-07T09:10:13;1.80;99.90
8008;DHT22;4049;49.468;11.200;2024-01-07T09:12:40;1.80;99.90
8008;DHT22;4049;49.468;11.200;2024-01-07T09:15:07;1.80;99.90
8008;DHT22;4049;49.468;11.200;2024-01-07T09:17:37;1.70;99.90
8008;DHT22;4049;49.468;11.200;2024-01-07T09:20:04;1.70;99.90
8008;DHT22;4049;49.468;11.200;2024-01-07T09:22:33;1.70;99.90
8008;DHT22;4049;49.468;11.200;2024-01-07T09:25:02;1.70;99.90
8008;DHT22;4049;49.468;11.200;2024-01-07T09:27:30;1.70;99.90
8008;DHT22;4049;49.468;11.200;2024-01-07T09:29:57;1.70;99.90
8008;DHT22;4049;49.468;11.200;2024-01-07T09:32:24;1.60;99.90
8008;DHT22;4049;49.468;11.200;2024-01-07T09:34:52;1.60;99.90
8008;DHT22;4049;49.468;11.200;2024-01-07T09:37:19;1.60;99.90
8008;DHT22;4049;49.468;11.200;2024-01-07T09:39:46;1.60;99.90
8008;DHT22;4049;49.468;11.200;2024-01-07T09:42:14;1.60;99.90
8008;DHT22;4049;49.468;11.200;2024-01-07T09:44:42;1.50;99.90
8008;DHT22;4049;49.468;11.200;2024-01-07T09:47:11;1.60;99.90
8008;DHT22;4049;49.468;11.200;2024-01-07T09:49:39;1.50;99.90
8008;DHT22;4049;49.468;11.200;2024-01-07T09:52:08;1.50;99.90
8008;DHT22;4049;49.468;11.200;2024-01-07T09:54:36;1.50;99.90
8008;DHT22;4049;49.468;11.200;2024-01-07T09:57:05;1.50;99.90
8008;DHT22;4049;49.468;11.200;2024-01-07T09:59:33;1.50;99.90
8008;DHT22;4049;49.468;11.200;2024-01-07T10:02:01;1.50;99.90
8008;DHT22;4049;49.468;11.200;2024-01-07T10:04:28;1.50;99.90
8008;DHT22;4049;49.468;11.200;2024-01-07T10:06:56;1.40;99.90
8008;DHT22;4049;49.468;11.200;2024-01-07T10:09:24;1.40;99.90
8008;DHT22;4049;49.468;11.200;2024-01-07T10:11:52;1.40;99.90
8008;DHT22;4049;49.468;11.200;2024-01-07T10:14:19;1.40;99.90
8008;DHT22;4049;49.468;11.200;2024-01-07T10:16:48;1.40;99.90
8008;DHT22;4049;49.468;11.200;2024-01-07T10:19:19;1.40;99.90
8008;DHT22;4049;49.468;11.200;2024-01-07T10:21:58;1.40;99.90
8008;DHT22;4049;49.468;11.200;2024-01-07T10:24:35;1.40;99.90
8008;DHT22;4049;49.468;11.200;2024-01-07T10:27:03;1.40;99.90
8008;DHT22;4049;49.468;11.200;2024-01-07T10:29:30;1.40;99.90
8008;DHT22;4049;49.468;11.200;2024-01-07T10:31:57;1.40;99.90
8008;DHT22;4049;49.468;11.200;2024-01-07T10:34:25;1.40;99.90
8008;DHT22;4049;49.468;11.200;2024-01-07T10:36:55;1.40;99.90
8008;DHT22;4049;49.468;11.200;2024-01-07T10:39:26;1.40;99.90
8008;DHT22;4049;49.468;11.200;2024-01-07T10:41:55;1.40;99.90
8008;DHT22;4049;49.468;11.200;2024-01-07T10:44:25;1.40;99.90
8008;DHT22;4049;49.468;11.200;2024-01-07T10:46:54;1.40;99.90
8008;DHT22;4049;49.468;11.200;2024-01-07T10:49:22;1.40;99.90
8008;DHT22;4049;49.468;11.200;2024-01-07T10:51:59;1.40;99.90
8008;DHT22;4049;49.468;11.200;2024-01-07T10:54:33;1.40;99.90
8008;DHT22;4049;49.468;11.200;2024-01-07T10:57:07;1.50;99.90
8008;DHT22;4049;49.468;11.200;2024-01-07T10:59:36;1.40;99.90
8008;DHT22;4049;49.468;11.200;2024-01-07T11:02:04;1.40;99.90
8008;DHT22;4049;49.468;11.200;2024-01-07T11:04:37;1.40;99.90
8008;DHT22;4049;49.468;11.200;2024-01-07T11:07:14;1.40;99.90
8008;DHT22;4049;49.468;11.200;2024-01-07T11:09:54;1.40;99.90
8008;DHT22;4049;49.468;11.200;2024-01-07T11:12:22;1.40;99.90
8008;DHT22;4049;49.468;11.200;2024-01-07T11:14:50;1.40;99.90
8008;DHT22;4049;49.468;11.200;2024-01-07T11:17:40;1.40;99.90
8008;DHT22;4049;49.468;11.200;2024-01-07T11:20:13;1.40;99.90
8008;DHT22;4049;49.468;11.200;2024-01-07T11:22:40;1.40;99.90
8008;DHT22;4049;49.468;11.200;2024-01-07T11:25:30;1.40;99.90
8008;DHT22;4049;49.468;11.200;2024-01-07T11:27:57;1.40;99.90
8008;DHT22;4049;49.468;11.200;2024-01-07T11:30:25;1.30;99.90
8008;DHT22;4049;49.468;11.200;2024-01-07T11:32:57;1.40;99.90
8008;DHT22;4049;49.468;11.200;2024-01-07T11:35:54;1.40;99.90
8008;DHT22;4049;49.468;11.200;2024-01-07T11:38:22;1.40;99.90
8008;DHT22;4049;49.468;11.200;2024-01-07T11:40:51;1.40;99.90
8008;DHT22;4049;49.468;11.200;2024-01-07T11:43:18;1.40;99.90
8008;DHT22;4049;49.468;11.200;2024-01-07T11:45:45;1.40;99.90
8008;DHT22;4049;49.468;11.200;2024-01-07T11:48:13;1.30;99.90
8008;DHT22;4049;49.468;11.200;2024-01-07T11:50:40;1.30;99.90
8008;DHT22;4049;49.468;11.200;2024-01-07T11:53:07;1.30;99.90
8008;DHT22;4049;49.468;11.200;2024-01-07T11:55:34;1.30;99.90
8008;DHT22;4049;49.468;11.200;2024-01-07T11:58:03;1.30;99.90
8008;DHT22;4049;49.468;11.200;2024-01-07T12:00:33;1.30;99.90
8008;DHT22;4049;49.468;11.200;2024-01-07T12:03:01;1.20;99.90
8008;DHT22;4049;49.468;11.200;2024-01-07T12:05:28;1.20;99.90
8008;DHT22;4049;49.468;11.200;2024-01-07T12:07:55;1.20;99.90
8008;DHT22;4049;49.468;11.200;2024-01-07T12:10:23;1.20;99.90
8008;DHT22;4049;49.468;11.200;2024-01-07T12:12:50;1.20;99.90
8008;DHT22;4049;49.468;11.200;2024-01-07T12:15:19;1.20;99.90
8008;DHT22;4049;49.468;11.200;2024-01-07T12:17:57;1.20;99.90
8008;DHT22;4049;49.468;11.200;2024-01-07T12:20:25;1.20;99.90
8008;DHT22;4049;49.468;11.200;2024-01-07T12:22:54;1.20;99.90
8008;DHT22;4049;49.468;11.200;2024-01-07T12:25:22;1.20;99.90
8008;DHT22;4049;49.468;11.200;2024-01-07T12:27:50;1.10;99.90
8008;DHT22;4049;49.468;11.200;2024-01-07T12:30:20;1.10;99.90
8008;DHT22;4049;49.468;11.200;2024-01-07T12:32:51;1.10;99.90
8008;DHT22;4049;49.468;11.200;2024-01-07T12:35:17;1.10;99.90
8008;DHT22;4049;49.468;11.200;2024-01-07T12:37:44;1.10;99.90
8008;DHT22;4049;49.468;11.200;2024-01-07T12:40:12;1.10;99.90
8008;DHT22;4049;49.468;11.200;2024-01-07T12:42:39;1.10;99.90
8008;DHT22;4049;49.468;11.200;2024-01-07T12:45:11;1.10;99.90
8008;DHT22;4049;49.468;11.200;2024-01-07T12:47:40;1.10;99.90
8008;DHT22;4049;49.468;11.200;2024-01-07T12:50:08;1.10;99.90
8008;DHT22;4049;49.468;11.200;2024-01-07T12:52:36;1.10;99.90
8008;DHT22;4049;49.468;11.200;2024-01-07T12:55:04;1.10;99.90
8008;DHT22;4049;49.468;11.200;2024-01-07T12:57:32;1.10;99.90
8008;DHT22;4049;49.468;11.200;2024-01-07T12:59:59;1.10;99.90
8008;DHT22;4049;49.468;11.200;2024-01-07T13:02:26;1.10;99.90
8008;DHT22;4049;49.468;11.200;2024-01-07T13:04:54;1.10;99.90
8008;DHT22;4049;49.468;11.200;2024-01-07T13:07:21;1.00;99.90
8008;DHT22;4049;49.468;11.200;2024-01-07T13:09:48;1.00;99.90
8008;DHT22;4049;49.468;11.200;2024-01-07T13:12:15;1.00;99.90
8008;DHT22;4049;49.468;11.200;2024-01-07T13:14:42;1.00;99.90
8008;DHT22;4049;49.468;11.200;2024-01-07T13:17:09;1.00;99.90
8008;DHT22;4049;49.468;11.200;2024-01-07T13:19:36;0.90;99.90
8008;DHT22;4049;49.468;11.200;2024-01-07T13:22:04;1.00;99.90
8008;DHT22;4049;49.468;11.200;2024-01-07T13:24:31;0.90;99.90
8008;DHT22;4049;49.468;11.200;2024-01-07T13:26:58;0.90;99.90
8008;DHT22;4049;49.468;11.200;2024-01-07T13:29:25;0.90;99.90
8008;DHT22;4049;49.468;11.200;2024-01-07T13:31:52;0.90;99.90
8008;DHT22;4049;49.468;11.200;2024-01-07T13:34:18;0.90;99.90
8008;DHT22;4049;49.468;11.200;2024-01-07T13:36:45;0.90;99.90
8008;DHT22;4049;49.468;11.200;2024-01-07T13:39:14;0.90;99.90
8008;DHT22;4049;49.468;11.200;2024-01-07T13:41:42;0.90;99.90
8008;DHT22;4049;49.468;11.200;2024-01-07T13:44:09;0.90;99.90
8008;DHT22;4049;49.468;11.200;2024-01-07T13:46:43;0.90;99.90
8008;DHT22;4049;49.468;11.200;2024-01-07T13:49:10;0.90;99.90
8008;DHT22;4049;49.468;11.200;2024-01-07T13:51:37;0.90;99.90
8008;DHT22;4049;49.468;11.200;2024-01-07T13:54:04;0.90;99.90
8008;DHT22;4049;49.468;11.200;2024-01-07T13:56:33;0.90;99.90
8008;DHT22;4049;49.468;11.200;2024-01-07T13:59:01;0.90;99.90
8008;DHT22;4049;49.468;11.200;2024-01-07T14:01:29;0.90;99.90
8008;DHT22;4049;49.468;11.200;2024-01-07T14:03:56;0.90;99.90
8008;DHT22;4049;49.468;11.200;2024-01-07T14:06:23;0.80;99.90
8008;DHT22;4049;49.468;11.200;2024-01-07T14:08:50;0.80;99.90
8008;DHT22;4049;49.468;11.200;2024-01-07T14:11:17;0.80;99.90
8008;DHT22;4049;49.468;11.200;2024-01-07T14:13:46;0.80;99.90
8008;DHT22;4049;49.468;11.200;2024-01-07T14:16:13;0.80;99.90
8008;DHT22;4049;49.468;11.200;2024-01-07T14:18:40;0.80;99.90
8008;DHT22;4049;49.468;11.200;2024-01-07T14:21:07;0.80;99.90
8008;DHT22;4049;49.468;11.200;2024-01-07T14:23:35;0.80;99.90
8008;DHT22;4049;49.468;11.200;2024-01-07T14:26:02;0.80;99.90
8008;DHT22;4049;49.468;11.200;2024-01-07T14:28:29;0.80;99.90
8008;DHT22;4049;49.468;11.200;2024-01-07T14:30:57;0.80;99.90
8008;DHT22;4049;49.468;11.200;2024-01-07T14:33:24;0.80;99.90
8008;DHT22;4049;49.468;11.200;2024-01-07T14:35:51;0.70;99.90
8008;DHT22;4049;49.468;11.200;2024-01-07T14:38:18;0.80;99.90
8008;DHT22;4049;49.468;11.200;2024-01-07T14:40:45;0.80;99.90
8008;DHT22;4049;49.468;11.200;2024-01-07T14:43:12;0.80;99.90
8008;DHT22;4049;49.468;11.200;2024-01-07T14:45:39;0.90;99.90
8008;DHT22;4049;49.468;11.200;2024-01-07T14:48:07;0.80;99.90
8008;DHT22;4049;49.468;11.200;2024-01-07T14:50:34;0.80;99.90
8008;DHT22;4049;49.468;11.200;2024-01-07T14:53:02;0.70;99.90
8008;DHT22;4049;49.468;11.200;2024-01-07T14:55:29;0.70;99.90
8008;DHT22;4049;49.468;11.200;2024-01-07T14:57:55;0.70;99.90
8008;DHT22;4049;49.468;11.200;2024-01-07T15:00:22;0.70;99.90
8008;DHT22;4049;49.468;11.200;2024-01-07T15:02:49;0.70;99.90
8008;DHT22;4049;49.468;11.200;2024-01-07T15:05:18;0.70;99.90
8008;DHT22;4049;49.468;11.200;2024-01-07T15:07:45;0.70;99.90
8008;DHT22;4049;49.468;11.200;2024-01-07T15:10:15;0.60;99.90
8008;DHT22;4049;49.468;11.200;2024-01-07T15:12:43;0.60;99.90
8008;DHT22;4049;49.468;11.200;2024-01-07T15:15:10;0.50;99.90
8008;DHT22;4049;49.468;11.200;2024-01-07T15:17:37;0.50;99.90
8008;DHT22;4049;49.468;11.200;2024-01-07T15:20:05;0.50;99.90
8008;DHT22;4049;49.468;11.200;2024-01-07T15:22:34;0.50;99.90
8008;DHT22;4049;49.468;11.200;2024-01-07T15:25:01;0.40;99.90
8008;DHT22;4049;49.468;11.200;2024-01-07T15:27:28;0.40;99.90
8008;DHT22;4049;49.468;11.200;2024-01-07T15:29:56;0.40;99.90
8008;DHT22;4049;49.468;11.200;2024-01-07T15:32:23;0.30;99.90
8008;DHT22;4049;49.468;11.200;2024-01-07T15:34:52;0.30;99.90
8008;DHT22;4049;49.468;11.200;2024-01-07T15:37:18;0.40;99.90
8008;DHT22;4049;49.468;11.200;2024-01-07T15:39:47;0.30;99.90
8008;DHT22;4049;49.468;11.200;2024-01-07T15:42:14;0.30;99.90
8008;DHT22;4049;49.468;11.200;2024-01-07T15:44:42;0.30;99.90
8008;DHT22;4049;49.468;11.200;2024-01-07T15:47:09;0.30;99.90
8008;DHT22;4049;49.468;11.200;2024-01-07T15:49:37;0.30;99.90
8008;DHT22;4049;49.468;11.200;2024-01-07T15:52:04;0.30;99.90
8008;DHT22;4049;49.468;11.200;2024-01-07T15:54:31;0.30;99.90
8008;DHT22;4049;49.468;11.200;2024-01-07T15:57:00;0.20;99.90
8008;DHT22;4049;49.468;11.200;2024-01-07T15:59:27;0.20;99.90
8008;DHT22;4049;49.468;11.200;2024-01-07T16:01:54;0.20;99.90
8008;DHT22;4049;49.468;11.200;2024-01-07T16:04:21;0.20;99.90